sensor_id;sensor_type;location;lat;lon;timestamp;P1;durP1;ratioP1;P2;durP2;ratioP2
67904;SDS011;54709;43.614;1.576;2023-03-14T00:02:18;9.77;;;1.70;;
67904;SDS011;54709;43.614;1.576;2023-03-14T00:04:43;9.90;;;1.73;;
67904;SDS011;54709;43.614;1.576;2023-03-14T00:07:10;9.63;;;1.85;;
67904;SDS011;54709;43.614;1.576;2023-03-14T00:09:36;5.75;;;1.40;;
67904;SDS011;54709;43.614;1.576;2023-03-14T00:12:02;10.43;;;1.95;;
67904;SDS011;54709;43.614;1.576;2023-03-14T00:14:28;8.98;;;2.08;;
67904;SDS011;54709;43.614;1.576;2023-03-14T00:16:53;8.30;;;1.80;;
67904;SDS011;54709;43.614;1.576;2023-03-14T00:19:19;8.27;;;1.70;;
67904;SDS011;54709;43.614;1.576;2023-03-14T00:21:44;8.77;;;2.00;;
67904;SDS011;54709;43.614;1.576;2023-03-14T00:24:09;7.47;;;1.58;;
67904;SDS011;54709;43.614;1.576;2023-03-14T00:26:35;8.95;;;1.75;;
67904;SDS011;54709;43.614;1.576;2023-03-14T00:29:00;9.90;;;1.77;;
67904;SDS011;54709;43.614;1.576;2023-03-14T00:31:26;8.85;;;2.20;;
67904;SDS011;54709;43.614;1.576;2023-03-14T00:33:52;6.82;;;1.80;;
67904;SDS011;54709;43.614;1.576;2023-03-14T00:36:18;6.18;;;1.70;;
67904;SDS011;54709;43.614;1.576;2023-03-14T00:38:46;8.85;;;2.00;;
67904;SDS011;54709;43.614;1.576;2023-03-14T00:41:14;8.48;;;1.98;;
67904;SDS011;54709;43.614;1.576;2023-03-14T00:43:40;7.75;;;2.08;;
67904;SDS011;54709;43.614;1.576;2023-03-14T00:46:06;11.52;;;1.95;;
67904;SDS011;54709;43.614;1.576;2023-03-14T00:48:31;7.82;;;1.65;;
67904;SDS011;54709;43.614;1.576;2023-03-14T00:50:57;14.65;;;1.88;;
67904;SDS011;54709;43.614;1.576;2023-03-14T00:53:22;9.20;;;1.70;;
67904;SDS011;54709;43.614;1.576;2023-03-14T00:55:48;10.80;;;2.00;;
67904;SDS011;54709;43.614;1.576;2023-03-14T00:58:14;6.65;;;1.70;;
67904;SDS011;54709;43.614;1.576;2023-03-14T01:00:40;8.60;;;1.65;;
67904;SDS011;54709;43.614;1.576;2023-03-14T01:03:06;6.00;;;1.80;;
67904;SDS011;54709;43.614;1.576;2023-03-14T01:05:33;13.48;;;1.77;;
67904;SDS011;54709;43.614;1.576;2023-03-14T01:07:58;8.93;;;1.60;;
67904;SDS011;54709;43.614;1.576;2023-03-14T01:10:24;6.22;;;1.73;;
67904;SDS011;54709;43.614;1.576;2023-03-14T01:12:49;10.05;;;1.65;;
67904;SDS011;54709;43.614;1.576;2023-03-14T01:15:15;11.50;;;2.00;;
67904;SDS011;54709;43.614;1.576;2023-03-14T01:17:40;10.30;;;2.22;;
67904;SDS011;54709;43.614;1.576;2023-03-14T01:20:06;9.45;;;1.63;;
67904;SDS011;54709;43.614;1.576;2023-03-14T01:22:36;6.43;;;1.70;;
67904;SDS011;54709;43.614;1.576;2023-03-14T01:25:05;8.32;;;1.77;;
67904;SDS011;54709;43.614;1.576;2023-03-14T01:27:31;7.15;;;2.10;;
67904;SDS011;54709;43.614;1.576;2023-03-14T01:29:57;9.23;;;2.15;;
67904;SDS011;54709;43.614;1.576;2023-03-14T01:32:22;10.45;;;1.98;;
67904;SDS011;54709;43.614;1.576;2023-03-14T01:34:48;8.85;;;2.20;;
67904;SDS011;54709;43.614;1.576;2023-03-14T01:37:14;7.55;;;1.52;;
67904;SDS011;54709;43.614;1.576;2023-03-14T01:39:39;9.05;;;1.60;;
67904;SDS011;54709;43.614;1.576;2023-03-14T01:42:04;6.75;;;1.55;;
67904;SDS011;54709;43.614;1.576;2023-03-14T01:44:49;9.75;;;2.10;;
67904;SDS011;54709;43.614;1.576;2023-03-14T01:47:19;9.52;;;2.00;;
67904;SDS011;54709;43.614;1.576;2023-03-14T01:49:46;10.75;;;2.05;;
67904;SDS011;54709;43.614;1.576;2023-03-14T01:54:39;15.82;;;2.05;;
67904;SDS011;54709;43.614;1.576;2023-03-14T02:02:25;12.68;;;2.28;;
67904;SDS011;54709;43.614;1.576;2023-03-14T02:04:52;13.82;;;2.53;;
67904;SDS011;54709;43.614;1.576;2023-03-14T02:07:19;12.13;;;2.65;;
67904;SDS011;54709;43.614;1.576;2023-03-14T02:09:46;20.42;;;3.05;;
67904;SDS011;54709;43.614;1.576;2023-03-14T02:12:11;14.00;;;2.70;;
67904;SDS011;54709;43.614;1.576;2023-03-14T02:14:39;19.90;;;3.63;;
67904;SDS011;54709;43.614;1.576;2023-03-14T02:17:06;16.45;;;3.17;;
67904;SDS011;54709;43.614;1.576;2023-03-14T02:22:35;20.77;;;3.65;;
67904;SDS011;54709;43.614;1.576;2023-03-14T02:25:10;16.05;;;2.75;;
67904;SDS011;54709;43.614;1.576;2023-03-14T02:27:42;18.48;;;3.15;;
67904;SDS011;54709;43.614;1.576;2023-03-14T02:30:13;27.17;;;3.70;;
67904;SDS011;54709;43.614;1.576;2023-03-14T02:35:08;18.95;;;3.42;;
67904;SDS011;54709;43.614;1.576;2023-03-14T02:37:37;21.23;;;3.65;;
67904;SDS011;54709;43.614;1.576;2023-03-14T02:40:07;16.45;;;3.30;;
67904;SDS011;54709;43.614;1.576;2023-03-14T02:42:33;24.73;;;4.32;;
67904;SDS011;54709;43.614;1.576;2023-03-14T02:47:29;24.10;;;3.65;;
67904;SDS011;54709;43.614;1.576;2023-03-14T02:50:00;23.27;;;3.80;;
67904;SDS011;54709;43.614;1.576;2023-03-14T02:52:28;19.10;;;3.70;;
67904;SDS011;54709;43.614;1.576;2023-03-14T02:54:54;16.40;;;3.22;;
67904;SDS011;54709;43.614;1.576;2023-03-14T02:57:19;18.20;;;3.30;;
67904;SDS011;54709;43.614;1.576;2023-03-14T02:59:45;18.45;;;3.28;;
67904;SDS011;54709;43.614;1.576;2023-03-14T03:02:10;15.55;;;3.45;;
67904;SDS011;54709;43.614;1.576;2023-03-14T03:04:36;15.15;;;2.75;;
67904;SDS011;54709;43.614;1.576;2023-03-14T03:07:01;15.23;;;2.85;;
67904;SDS011;54709;43.614;1.576;2023-03-14T03:19:12;18.05;;;3.00;;
67904;SDS011;54709;43.614;1.576;2023-03-14T03:21:38;17.98;;;2.88;;
67904;SDS011;54709;43.614;1.576;2023-03-14T03:24:04;11.15;;;2.40;;
67904;SDS011;54709;43.614;1.576;2023-03-14T03:26:30;16.02;;;3.20;;
67904;SDS011;54709;43.614;1.576;2023-03-14T03:28:55;11.25;;;2.60;;
67904;SDS011;54709;43.614;1.576;2023-03-14T03:31:20;12.13;;;2.95;;
67904;SDS011;54709;43.614;1.576;2023-03-14T03:33:46;10.43;;;2.40;;
67904;SDS011;54709;43.614;1.576;2023-03-14T03:36:11;16.30;;;3.38;;
67904;SDS011;54709;43.614;1.576;2023-03-14T03:38:37;13.73;;;2.95;;
67904;SDS011;54709;43.614;1.576;2023-03-14T03:41:03;16.58;;;3.35;;
67904;SDS011;54709;43.614;1.576;2023-03-14T03:43:31;12.57;;;2.33;;
67904;SDS011;54709;43.614;1.576;2023-03-14T03:45:56;15.90;;;2.60;;
67904;SDS011;54709;43.614;1.576;2023-03-14T03:48:22;16.52;;;3.03;;
67904;SDS011;54709;43.614;1.576;2023-03-14T03:50:47;16.00;;;3.10;;
67904;SDS011;54709;43.614;1.576;2023-03-14T03:53:13;13.18;;;2.80;;
67904;SDS011;54709;43.614;1.576;2023-03-14T03:55:40;16.85;;;2.75;;
67904;SDS011;54709;43.614;1.576;2023-03-14T03:58:07;12.27;;;2.63;;
67904;SDS011;54709;43.614;1.576;2023-03-14T04:00:33;11.15;;;2.78;;
67904;SDS011;54709;43.614;1.576;2023-03-14T04:02:58;16.85;;;3.00;;
67904;SDS011;54709;43.614;1.576;2023-03-14T04:05:24;14.95;;;2.95;;
67904;SDS011;54709;43.614;1.576;2023-03-14T04:07:49;14.10;;;2.65;;
67904;SDS011;54709;43.614;1.576;2023-03-14T04:10:15;12.68;;;2.78;;
67904;SDS011;54709;43.614;1.576;2023-03-14T04:12:40;16.20;;;2.90;;
67904;SDS011;54709;43.614;1.576;2023-03-14T04:15:06;15.57;;;3.05;;
67904;SDS011;54709;43.614;1.576;2023-03-14T04:17:32;14.68;;;2.83;;
67904;SDS011;54709;43.614;1.576;2023-03-14T04:19:57;12.48;;;3.00;;
67904;SDS011;54709;43.614;1.576;2023-03-14T04:22:23;15.05;;;3.00;;
67904;SDS011;54709;43.614;1.576;2023-03-14T04:24:48;11.40;;;2.60;;
67904;SDS011;54709;43.614;1.576;2023-03-14T04:27:13;14.95;;;2.97;;
67904;SDS011;54709;43.614;1.576;2023-03-14T04:29:39;13.35;;;3.15;;
67904;SDS011;54709;43.614;1.576;2023-03-14T04:32:05;16.40;;;3.10;;
67904;SDS011;54709;43.614;1.576;2023-03-14T04:34:31;12.73;;;2.60;;
67904;SDS011;54709;43.614;1.576;2023-03-14T04:36:56;13.48;;;3.28;;
67904;SDS011;54709;43.614;1.576;2023-03-14T04:39:21;15.02;;;2.80;;
67904;SDS011;54709;43.614;1.576;2023-03-14T04:41:47;16.70;;;2.88;;
67904;SDS011;54709;43.614;1.576;2023-03-14T04:44:12;14.32;;;2.80;;
67904;SDS011;54709;43.614;1.576;2023-03-14T04:46:37;14.32;;;2.63;;
67904;SDS011;54709;43.614;1.576;2023-03-14T04:49:03;15.15;;;2.90;;
67904;SDS011;54709;43.614;1.576;2023-03-14T04:51:28;14.30;;;3.25;;
67904;SDS011;54709;43.614;1.576;2023-03-14T04:53:54;13.45;;;2.58;;
67904;SDS011;54709;43.614;1.576;2023-03-14T04:56:19;16.35;;;3.22;;
67904;SDS011;54709;43.614;1.576;2023-03-14T04:58:45;18.13;;;3.17;;
67904;SDS011;54709;43.614;1.576;2023-03-14T05:01:10;24.48;;;3.67;;
67904;SDS011;54709;43.614;1.576;2023-03-14T05:03:36;14.95;;;3.40;;
67904;SDS011;54709;43.614;1.576;2023-03-14T05:06:03;18.55;;;3.38;;
67904;SDS011;54709;43.614;1.576;2023-03-14T05:08:29;14.82;;;3.08;;
67904;SDS011;54709;43.614;1.576;2023-03-14T05:10:55;14.85;;;3.00;;
67904;SDS011;54709;43.614;1.576;2023-03-14T05:13:21;14.15;;;3.05;;
67904;SDS011;54709;43.614;1.576;2023-03-14T05:15:46;19.00;;;3.60;;
67904;SDS011;54709;43.614;1.576;2023-03-14T05:18:12;12.98;;;3.10;;
67904;SDS011;54709;43.614;1.576;2023-03-14T05:20:37;18.45;;;3.63;;
67904;SDS011;54709;43.614;1.576;2023-03-14T05:23:02;20.65;;;3.88;;
67904;SDS011;54709;43.614;1.576;2023-03-14T05:25:28;21.70;;;3.63;;
67904;SDS011;54709;43.614;1.576;2023-03-14T05:27:54;17.63;;;3.90;;
67904;SDS011;54709;43.614;1.576;2023-03-14T05:30:20;20.35;;;3.88;;
67904;SDS011;54709;43.614;1.576;2023-03-14T05:32:46;20.92;;;4.00;;
67904;SDS011;54709;43.614;1.576;2023-03-14T05:35:12;25.65;;;4.57;;
67904;SDS011;54709;43.614;1.576;2023-03-14T05:37:37;20.45;;;4.40;;
67904;SDS011;54709;43.614;1.576;2023-03-14T05:40:03;24.25;;;4.30;;
67904;SDS011;54709;43.614;1.576;2023-03-14T05:42:31;25.20;;;4.28;;
67904;SDS011;54709;43.614;1.576;2023-03-14T05:44:56;30.77;;;4.65;;
67904;SDS011;54709;43.614;1.576;2023-03-14T05:47:22;20.98;;;4.68;;
67904;SDS011;54709;43.614;1.576;2023-03-14T05:49:47;21.08;;;4.07;;
67904;SDS011;54709;43.614;1.576;2023-03-14T05:52:13;21.40;;;4.30;;
67904;SDS011;54709;43.614;1.576;2023-03-14T05:54:39;23.67;;;4.43;;
67904;SDS011;54709;43.614;1.576;2023-03-14T05:57:04;21.27;;;4.32;;
67904;SDS011;54709;43.614;1.576;2023-03-14T05:59:30;20.20;;;3.88;;
67904;SDS011;54709;43.614;1.576;2023-03-14T06:01:55;15.40;;;3.17;;
67904;SDS011;54709;43.614;1.576;2023-03-14T06:04:20;15.80;;;3.05;;
67904;SDS011;54709;43.614;1.576;2023-03-14T06:06:46;21.30;;;3.40;;
67904;SDS011;54709;43.614;1.576;2023-03-14T06:09:11;19.15;;;3.10;;
67904;SDS011;54709;43.614;1.576;2023-03-14T06:11:36;19.63;;;3.45;;
67904;SDS011;54709;43.614;1.576;2023-03-14T06:14:02;15.55;;;3.67;;
67904;SDS011;54709;43.614;1.576;2023-03-14T06:16:27;25.85;;;4.15;;
67904;SDS011;54709;43.614;1.576;2023-03-14T06:18:53;28.98;;;4.90;;
67904;SDS011;54709;43.614;1.576;2023-03-14T06:21:18;24.83;;;4.55;;
67904;SDS011;54709;43.614;1.576;2023-03-14T06:23:44;25.50;;;4.53;;
67904;SDS011;54709;43.614;1.576;2023-03-14T06:26:10;25.38;;;4.57;;
67904;SDS011;54709;43.614;1.576;2023-03-14T06:28:36;29.23;;;5.00;;
67904;SDS011;54709;43.614;1.576;2023-03-14T06:31:02;27.13;;;4.90;;
67904;SDS011;54709;43.614;1.576;2023-03-14T06:33:28;24.92;;;4.50;;
67904;SDS011;54709;43.614;1.576;2023-03-14T06:35:53;25.63;;;4.78;;
67904;SDS011;54709;43.614;1.576;2023-03-14T06:38:19;27.90;;;5.13;;
67904;SDS011;54709;43.614;1.576;2023-03-14T06:40:44;24.48;;;4.25;;
67904;SDS011;54709;43.614;1.576;2023-03-14T06:43:10;24.27;;;4.38;;
67904;SDS011;54709;43.614;1.576;2023-03-14T06:45:36;26.05;;;3.88;;
67904;SDS011;54709;43.614;1.576;2023-03-14T06:48:01;24.33;;;4.07;;
67904;SDS011;54709;43.614;1.576;2023-03-14T06:50:26;26.92;;;4.85;;
67904;SDS011;54709;43.614;1.576;2023-03-14T06:52:52;26.58;;;4.72;;
67904;SDS011;54709;43.614;1.576;2023-03-14T06:55:17;21.23;;;4.00;;
67904;SDS011;54709;43.614;1.576;2023-03-14T06:57:43;21.88;;;4.10;;
67904;SDS011;54709;43.614;1.576;2023-03-14T07:00:09;24.58;;;4.30;;
67904;SDS011;54709;43.614;1.576;2023-03-14T07:02:35;17.25;;;3.60;;
67904;SDS011;54709;43.614;1.576;2023-03-14T07:05:01;29.27;;;4.40;;
67904;SDS011;54709;43.614;1.576;2023-03-14T07:07:27;20.83;;;4.38;;
67904;SDS011;54709;43.614;1.576;2023-03-14T07:09:53;28.77;;;5.22;;
67904;SDS011;54709;43.614;1.576;2023-03-14T07:12:19;22.88;;;4.78;;
67904;SDS011;54709;43.614;1.576;2023-03-14T07:14:44;28.25;;;5.22;;
67904;SDS011;54709;43.614;1.576;2023-03-14T07:17:10;28.95;;;4.68;;
67904;SDS011;54709;43.614;1.576;2023-03-14T07:19:35;22.00;;;4.35;;
67904;SDS011;54709;43.614;1.576;2023-03-14T07:22:01;20.25;;;3.88;;
67904;SDS011;54709;43.614;1.576;2023-03-14T07:24:26;20.63;;;3.42;;
67904;SDS011;54709;43.614;1.576;2023-03-14T07:26:52;21.25;;;3.53;;
67904;SDS011;54709;43.614;1.576;2023-03-14T07:29:17;20.42;;;3.78;;
67904;SDS011;54709;43.614;1.576;2023-03-14T07:31:42;21.20;;;3.50;;
67904;SDS011;54709;43.614;1.576;2023-03-14T07:34:08;25.13;;;4.35;;
67904;SDS011;54709;43.614;1.576;2023-03-14T07:36:34;35.88;;;5.05;;
67904;SDS011;54709;43.614;1.576;2023-03-14T07:39:00;32.75;;;5.15;;
67904;SDS011;54709;43.614;1.576;2023-03-14T07:41:25;33.78;;;5.47;;
67904;SDS011;54709;43.614;1.576;2023-03-14T07:43:51;32.78;;;5.82;;
67904;SDS011;54709;43.614;1.576;2023-03-14T07:46:16;32.55;;;6.13;;
67904;SDS011;54709;43.614;1.576;2023-03-14T07:48:42;37.75;;;5.45;;
67904;SDS011;54709;43.614;1.576;2023-03-14T07:51:07;38.53;;;6.10;;
67904;SDS011;54709;43.614;1.576;2023-03-14T07:53:33;41.17;;;6.43;;
67904;SDS011;54709;43.614;1.576;2023-03-14T07:55:59;38.70;;;6.20;;
67904;SDS011;54709;43.614;1.576;2023-03-14T07:58:25;42.90;;;6.88;;
67904;SDS011;54709;43.614;1.576;2023-03-14T08:00:51;40.08;;;6.15;;
67904;SDS011;54709;43.614;1.576;2023-03-14T08:03:17;41.90;;;7.18;;
67904;SDS011;54709;43.614;1.576;2023-03-14T08:05:43;40.28;;;6.45;;
67904;SDS011;54709;43.614;1.576;2023-03-14T08:08:08;43.05;;;7.20;;
67904;SDS011;54709;43.614;1.576;2023-03-14T08:10:34;38.78;;;7.40;;
67904;SDS011;54709;43.614;1.576;2023-03-14T08:13:00;44.53;;;7.95;;
67904;SDS011;54709;43.614;1.576;2023-03-14T08:15:26;38.60;;;7.85;;
67904;SDS011;54709;43.614;1.576;2023-03-14T08:17:53;45.33;;;7.22;;
67904;SDS011;54709;43.614;1.576;2023-03-14T08:20:19;41.85;;;7.88;;
67904;SDS011;54709;43.614;1.576;2023-03-14T08:22:45;40.15;;;7.75;;
67904;SDS011;54709;43.614;1.576;2023-03-14T08:25:11;40.58;;;7.40;;
67904;SDS011;54709;43.614;1.576;2023-03-14T08:27:36;40.10;;;6.50;;
67904;SDS011;54709;43.614;1.576;2023-03-14T08:30:06;31.63;;;7.15;;
67904;SDS011;54709;43.614;1.576;2023-03-14T08:32:36;33.97;;;7.47;;
67904;SDS011;54709;43.614;1.576;2023-03-14T08:35:02;36.22;;;7.32;;
67904;SDS011;54709;43.614;1.576;2023-03-14T08:37:28;32.20;;;6.88;;
67904;SDS011;54709;43.614;1.576;2023-03-14T08:39:53;38.38;;;7.47;;
67904;SDS011;54709;43.614;1.576;2023-03-14T08:42:19;31.65;;;6.95;;
67904;SDS011;54709;43.614;1.576;2023-03-14T08:44:44;36.42;;;7.10;;
67904;SDS011;54709;43.614;1.576;2023-03-14T08:47:10;41.15;;;7.35;;
67904;SDS011;54709;43.614;1.576;2023-03-14T08:49:35;41.17;;;7.32;;
67904;SDS011;54709;43.614;1.576;2023-03-14T08:52:01;36.63;;;7.65;;
67904;SDS011;54709;43.614;1.576;2023-03-14T08:54:28;42.45;;;7.72;;
67904;SDS011;54709;43.614;1.576;2023-03-14T08:56:53;38.75;;;6.43;;
67904;SDS011;54709;43.614;1.576;2023-03-14T08:59:19;42.13;;;7.65;;
67904;SDS011;54709;43.614;1.576;2023-03-14T09:01:44;38.38;;;7.10;;
67904;SDS011;54709;43.614;1.576;2023-03-14T09:04:09;39.83;;;7.32;;
67904;SDS011;54709;43.614;1.576;2023-03-14T09:06:35;38.70;;;7.07;;
67904;SDS011;54709;43.614;1.576;2023-03-14T09:09:00;40.53;;;6.78;;
67904;SDS011;54709;43.614;1.576;2023-03-14T09:11:26;40.83;;;7.30;;
67904;SDS011;54709;43.614;1.576;2023-03-14T09:13:52;40.17;;;7.60;;
67904;SDS011;54709;43.614;1.576;2023-03-14T09:16:17;34.40;;;6.70;;
67904;SDS011;54709;43.614;1.576;2023-03-14T09:18:42;39.35;;;6.63;;
67904;SDS011;54709;43.614;1.576;2023-03-14T09:21:08;53.00;;;7.93;;
67904;SDS011;54709;43.614;1.576;2023-03-14T09:23:33;32.92;;;5.57;;
67904;SDS011;54709;43.614;1.576;2023-03-14T09:25:59;29.67;;;4.43;;
67904;SDS011;54709;43.614;1.576;2023-03-14T09:28:25;23.70;;;4.55;;
67904;SDS011;54709;43.614;1.576;2023-03-14T09:30:50;20.55;;;4.00;;
67904;SDS011;54709;43.614;1.576;2023-03-14T09:33:16;18.92;;;3.60;;
67904;SDS011;54709;43.614;1.576;2023-03-14T09:35:42;22.65;;;3.72;;
67904;SDS011;54709;43.614;1.576;2023-03-14T09:38:07;18.25;;;3.15;;
67904;SDS011;54709;43.614;1.576;2023-03-14T09:40:34;13.18;;;2.83;;
67904;SDS011;54709;43.614;1.576;2023-03-14T09:43:01;17.00;;;2.97;;
67904;SDS011;54709;43.614;1.576;2023-03-14T09:45:28;17.75;;;3.00;;
67904;SDS011;54709;43.614;1.576;2023-03-14T09:47:56;13.95;;;2.47;;
67904;SDS011;54709;43.614;1.576;2023-03-14T09:50:23;13.13;;;2.67;;
67904;SDS011;54709;43.614;1.576;2023-03-14T09:52:50;17.38;;;2.88;;
67904;SDS011;54709;43.614;1.576;2023-03-14T09:55:26;14.23;;;2.70;;
67904;SDS011;54709;43.614;1.576;2023-03-14T09:57:54;13.80;;;2.70;;
67904;SDS011;54709;43.614;1.576;2023-03-14T10:00:23;20.75;;;3.83;;
67904;SDS011;54709;43.614;1.576;2023-03-14T10:02:52;14.70;;;3.28;;
67904;SDS011;54709;43.614;1.576;2023-03-14T10:05:22;15.77;;;3.45;;
67904;SDS011;54709;43.614;1.576;2023-03-14T10:07:49;23.15;;;3.70;;
67904;SDS011;54709;43.614;1.576;2023-03-14T10:10:24;17.10;;;3.95;;
67904;SDS011;54709;43.614;1.576;2023-03-14T10:15:41;22.88;;;4.53;;
67904;SDS011;54709;43.614;1.576;2023-03-14T10:18:12;23.98;;;4.47;;
67904;SDS011;54709;43.614;1.576;2023-03-14T10:20:46;25.77;;;5.38;;
67904;SDS011;54709;43.614;1.576;2023-03-14T10:25:39;24.38;;;5.05;;
67904;SDS011;54709;43.614;1.576;2023-03-14T10:30:54;22.15;;;4.70;;
67904;SDS011;54709;43.614;1.576;2023-03-14T10:33:21;22.90;;;4.63;;
67904;SDS011;54709;43.614;1.576;2023-03-14T10:35:59;23.02;;;4.18;;
67904;SDS011;54709;43.614;1.576;2023-03-14T10:38:35;21.98;;;4.60;;
67904;SDS011;54709;43.614;1.576;2023-03-14T10:41:01;24.30;;;4.53;;
67904;SDS011;54709;43.614;1.576;2023-03-14T10:45:58;23.42;;;4.63;;
67904;SDS011;54709;43.614;1.576;2023-03-14T10:48:33;29.67;;;5.10;;
67904;SDS011;54709;43.614;1.576;2023-03-14T10:51:10;20.45;;;3.67;;
67904;SDS011;54709;43.614;1.576;2023-03-14T10:53:49;16.45;;;3.15;;
67904;SDS011;54709;43.614;1.576;2023-03-14T10:56:21;11.68;;;2.63;;
67904;SDS011;54709;43.614;1.576;2023-03-14T10:58:48;13.55;;;2.80;;
67904;SDS011;54709;43.614;1.576;2023-03-14T11:03:58;14.60;;;2.85;;
67904;SDS011;54709;43.614;1.576;2023-03-14T11:06:28;12.43;;;2.45;;
67904;SDS011;54709;43.614;1.576;2023-03-14T11:12:10;14.80;;;2.20;;
67904;SDS011;54709;43.614;1.576;2023-03-14T11:14:38;7.82;;;1.77;;
67904;SDS011;54709;43.614;1.576;2023-03-14T11:17:15;7.55;;;1.98;;
67904;SDS011;54709;43.614;1.576;2023-03-14T11:23:02;10.57;;;2.22;;
67904;SDS011;54709;43.614;1.576;2023-03-14T11:25:56;11.60;;;2.13;;
67904;SDS011;54709;43.614;1.576;2023-03-14T11:28:41;9.48;;;2.28;;
67904;SDS011;54709;43.614;1.576;2023-03-14T11:39:39;10.30;;;2.30;;
67904;SDS011;54709;43.614;1.576;2023-03-14T11:42:15;8.63;;;1.95;;
67904;SDS011;54709;43.614;1.576;2023-03-14T11:44:48;9.00;;;2.20;;
67904;SDS011;54709;43.614;1.576;2023-03-14T11:49:50;10.15;;;2.28;;
67904;SDS011;54709;43.614;1.576;2023-03-14T11:52:29;7.75;;;1.95;;
67904;SDS011;54709;43.614;1.576;2023-03-14T11:55:31;12.55;;;2.47;;
67904;SDS011;54709;43.614;1.576;2023-03-14T11:57:51;11.23;;;2.40;;
67904;SDS011;54709;43.614;1.576;2023-03-14T12:00:19;10.40;;;2.22;;
67904;SDS011;54709;43.614;1.576;2023-03-14T12:13:10;5.85;;;1.60;;
67904;SDS011;54709;43.614;1.576;2023-03-14T12:15:41;7.20;;;1.48;;
67904;SDS011;54709;43.614;1.576;2023-03-14T12:20:58;5.38;;;1.25;;
67904;SDS011;54709;43.614;1.576;2023-03-14T12:23:36;7.30;;;1.50;;
67904;SDS011;54709;43.614;1.576;2023-03-14T12:28:33;6.55;;;1.50;;
67904;SDS011;54709;43.614;1.576;2023-03-14T12:31:31;7.75;;;1.50;;
67904;SDS011;54709;43.614;1.576;2023-03-14T12:34:02;6.15;;;1.33;;
67904;SDS011;54709;43.614;1.576;2023-03-14T12:36:54;7.40;;;1.45;;
67904;SDS011;54709;43.614;1.576;2023-03-14T12:42:07;5.25;;;1.30;;
67904;SDS011;54709;43.614;1.576;2023-03-14T12:44:43;5.40;;;1.33;;
67904;SDS011;54709;43.614;1.576;2023-03-14T12:47:39;9.57;;;2.08;;
67904;SDS011;54709;43.614;1.576;2023-03-14T12:50:01;7.57;;;1.70;;
67904;SDS011;54709;43.614;1.576;2023-03-14T12:52:38;5.05;;;1.40;;
67904;SDS011;54709;43.614;1.576;2023-03-14T12:55:08;6.13;;;1.52;;
67904;SDS011;54709;43.614;1.576;2023-03-14T12:58:04;8.00;;;1.90;;
67904;SDS011;54709;43.614;1.576;2023-03-14T13:00:38;10.30;;;1.92;;
67904;SDS011;54709;43.614;1.576;2023-03-14T13:06:02;12.38;;;2.15;;
67904;SDS011;54709;43.614;1.576;2023-03-14T13:08:35;8.77;;;1.88;;
67904;SDS011;54709;43.614;1.576;2023-03-14T13:11:06;12.43;;;2.22;;
67904;SDS011;54709;43.614;1.576;2023-03-14T13:13:34;7.30;;;1.80;;
67904;SDS011;54709;43.614;1.576;2023-03-14T13:16:01;7.55;;;1.90;;
67904;SDS011;54709;43.614;1.576;2023-03-14T13:18:33;9.65;;;1.67;;
67904;SDS011;54709;43.614;1.576;2023-03-14T13:23:35;7.97;;;1.95;;
67904;SDS011;54709;43.614;1.576;2023-03-14T13:26:01;8.73;;;2.00;;
67904;SDS011;54709;43.614;1.576;2023-03-14T13:28:27;7.32;;;1.60;;
67904;SDS011;54709;43.614;1.576;2023-03-14T13:30:56;8.80;;;1.90;;
67904;SDS011;54709;43.614;1.576;2023-03-14T13:33:23;9.30;;;1.90;;
67904;SDS011;54709;43.614;1.576;2023-03-14T13:35:53;9.82;;;1.80;;
67904;SDS011;54709;43.614;1.576;2023-03-14T13:38:24;8.23;;;1.92;;
67904;SDS011;54709;43.614;1.576;2023-03-14T13:40:54;11.30;;;2.10;;
67904;SDS011;54709;43.614;1.576;2023-03-14T13:43:33;9.02;;;1.65;;
67904;SDS011;54709;43.614;1.576;2023-03-14T13:46:02;9.88;;;1.70;;
67904;SDS011;54709;43.614;1.576;2023-03-14T13:48:29;11.52;;;1.75;;
67904;SDS011;54709;43.614;1.576;2023-03-14T13:50:58;2.95;;;0.90;;
67904;SDS011;54709;43.614;1.576;2023-03-14T13:53:26;7.53;;;0.95;;
67904;SDS011;54709;43.614;1.576;2023-03-14T13:55:51;4.57;;;0.68;;
67904;SDS011;54709;43.614;1.576;2023-03-14T13:58:24;2.58;;;0.75;;
67904;SDS011;54709;43.614;1.576;2023-03-14T14:00:55;2.92;;;0.80;;
67904;SDS011;54709;43.614;1.576;2023-03-14T14:03:24;3.78;;;0.65;;
67904;SDS011;54709;43.614;1.576;2023-03-14T14:05:49;9.07;;;0.90;;
67904;SDS011;54709;43.614;1.576;2023-03-14T14:08:15;4.93;;;0.73;;
67904;SDS011;54709;43.614;1.576;2023-03-14T14:10:40;4.65;;;0.70;;
67904;SDS011;54709;43.614;1.576;2023-03-14T14:13:06;4.70;;;1.00;;
67904;SDS011;54709;43.614;1.576;2023-03-14T14:15:36;3.35;;;0.70;;
67904;SDS011;54709;43.614;1.576;2023-03-14T14:18:07;3.47;;;0.82;;
67904;SDS011;54709;43.614;1.576;2023-03-14T14:20:40;3.50;;;0.88;;
67904;SDS011;54709;43.614;1.576;2023-03-14T14:23:10;3.75;;;1.00;;
67904;SDS011;54709;43.614;1.576;2023-03-14T14:25:40;4.43;;;1.05;;
67904;SDS011;54709;43.614;1.576;2023-03-14T14:28:18;3.95;;;1.00;;
67904;SDS011;54709;43.614;1.576;2023-03-14T14:30:46;3.88;;;1.10;;
67904;SDS011;54709;43.614;1.576;2023-03-14T14:33:24;4.40;;;0.88;;
67904;SDS011;54709;43.614;1.576;2023-03-14T14:35:50;4.57;;;0.90;;
67904;SDS011;54709;43.614;1.576;2023-03-14T14:38:21;4.93;;;1.10;;
67904;SDS011;54709;43.614;1.576;2023-03-14T14:40:59;7.57;;;1.15;;
67904;SDS011;54709;43.614;1.576;2023-03-14T14:43:27;3.92;;;1.02;;
67904;SDS011;54709;43.614;1.576;2023-03-14T14:45:54;3.83;;;0.90;;
67904;SDS011;54709;43.614;1.576;2023-03-14T14:48:23;4.03;;;0.90;;
67904;SDS011;54709;43.614;1.576;2023-03-14T14:50:54;3.75;;;1.10;;
67904;SDS011;54709;43.614;1.576;2023-03-14T14:55:51;5.38;;;1.08;;
67904;SDS011;54709;43.614;1.576;2023-03-14T15:00:49;8.45;;;1.60;;
67904;SDS011;54709;43.614;1.576;2023-03-14T15:03:17;5.30;;;1.00;;
67904;SDS011;54709;43.614;1.576;2023-03-14T15:05:43;5.90;;;1.00;;
67904;SDS011;54709;43.614;1.576;2023-03-14T15:08:09;4.50;;;1.05;;
67904;SDS011;54709;43.614;1.576;2023-03-14T15:10:35;5.28;;;1.17;;
67904;SDS011;54709;43.614;1.576;2023-03-14T15:13:00;5.35;;;0.98;;
67904;SDS011;54709;43.614;1.576;2023-03-14T15:15:26;9.02;;;1.20;;
67904;SDS011;54709;43.614;1.576;2023-03-14T15:17:51;4.78;;;1.15;;
67904;SDS011;54709;43.614;1.576;2023-03-14T15:20:17;6.63;;;1.02;;
67904;SDS011;54709;43.614;1.576;2023-03-14T15:22:44;5.45;;;1.25;;
67904;SDS011;54709;43.614;1.576;2023-03-14T15:25:10;7.40;;;1.58;;
67904;SDS011;54709;43.614;1.576;2023-03-14T15:27:37;4.05;;;0.90;;
67904;SDS011;54709;43.614;1.576;2023-03-14T15:30:09;2.97;;;0.63;;
67904;SDS011;54709;43.614;1.576;2023-03-14T15:32:38;2.08;;;0.60;;
67904;SDS011;54709;43.614;1.576;2023-03-14T15:35:04;1.88;;;0.50;;
67904;SDS011;54709;43.614;1.576;2023-03-14T15:37:30;1.50;;;0.60;;
67904;SDS011;54709;43.614;1.576;2023-03-14T15:39:55;1.17;;;0.40;;
67904;SDS011;54709;43.614;1.576;2023-03-14T15:42:23;1.73;;;0.50;;
67904;SDS011;54709;43.614;1.576;2023-03-14T15:44:48;2.78;;;0.60;;
67904;SDS011;54709;43.614;1.576;2023-03-14T15:47:14;1.58;;;0.40;;
67904;SDS011;54709;43.614;1.576;2023-03-14T15:49:39;3.00;;;0.60;;
67904;SDS011;54709;43.614;1.576;2023-03-14T15:52:04;1.67;;;0.47;;
67904;SDS011;54709;43.614;1.576;2023-03-14T15:54:32;4.65;;;0.82;;
67904;SDS011;54709;43.614;1.576;2023-03-14T15:56:58;3.13;;;0.80;;
67904;SDS011;54709;43.614;1.576;2023-03-14T15:59:23;2.72;;;0.90;;
67904;SDS011;54709;43.614;1.576;2023-03-14T16:01:49;4.03;;;0.77;;
67904;SDS011;54709;43.614;1.576;2023-03-14T16:04:14;2.13;;;0.60;;
67904;SDS011;54709;43.614;1.576;2023-03-14T16:06:40;1.52;;;0.65;;